NCAR-RAP Real-Time Weather Data

Output produced by METARs form (20 February 2019  17:24 UTC)
found at http://weather.rap.ucar.edu/surface/
 
RJNW 201000Z 29009KT 240V330 5000 -SHRA BR FEW006 SCT010 BKN015 04/04 Q1017
RJNW 200900Z 27008KT 3500 -SHRA BR FEW006 SCT008 BKN010 05/04 Q1016
RJNW 200800Z 27009KT 240V310 5000 -SHRA BR FEW010 SCT015 BKN020 05/04 Q1016
RJNW 200700Z 24009KT 9999 -SHRA FEW010 SCT015 BKN020 06/04 Q1015
RJNW 200600Z 26011KT 9999 -SHRA BR FEW010 SCT015 BKN020 07/04 Q1015
RJNW 200500Z 26014KT 9999 FEW015 SCT020 BKN025 08/04 Q1014
RJNW 200400Z 27013G23KT 230V290 9999 FEW015 SCT020 BKN025 08/04 Q1014
RJNW 200300Z 26015KT 9999 FEW015 SCT025 BKN060 09/05 Q1015
RJNW 200200Z 27011KT 9999 FEW015 SCT025 BKN060 09/05 Q1015
RJNW 200100Z 27012KT 9999 FEW010 SCT040 BKN060 08/06 Q1015
RJNW 200000Z 27009KT 9999 FEW001 SCT009 BKN010 08/07 Q1015
RJNW 192300Z 28007KT 240V310 9999 FEW000 SCT004 BKN005 08/08 Q1015
RJNW 191000Z 04003KT 360V080 3500 -SHRA BR FEW000 SCT010 BKN020 06/06 Q1010
RJNW 190900Z 09005KT 050V120 3000 -RA BR FEW000 SCT003 BKN007 07/06 Q1009
RJNW 190800Z 09006KT 2000 RA BR FEW000 SCT002 BKN003 06/06 Q1011
RJNW 190700Z 10006KT 3500 -RA BR FEW000 BKN045 BKN060 06/06 Q1013
RJNW 190600Z 11005KT 5000 -RA BR FEW000 BKN040 BKN050 06/05 Q1014
RJNW 190500Z 08004KT 5000 -RA BR FEW000 SCT025 BKN035 06/05 Q1015
RJNW 190400Z 07003KT 9999 -RA FEW025 BKN030 06/06 Q1016
RJNW 190300Z 07004KT 9999 -RA FEW030 BKN040 BKN050 06/05 Q1018
RJNW 190200Z 09003KT 9999 -RA FEW040 BKN050 BKN060 07/05 Q1020
RJNW 190100Z 09004KT 9999 FEW040 SCT050 BKN060 06/04 Q1020
RJNW 190000Z 09004KT 050V110 CAVOK 06/04 Q1021
RJNW 182300Z 08003KT CAVOK 03/03 Q1022
RJNW 181000Z 00000KT 9999 FEW030 BKN/// 01/M01 Q1025
RJNW 180900Z 31002KT 9999 FEW030 BKN/// 05/M02 Q1025
RJNW 180800Z 27004KT 9999 FEW030 SCT/// 07/M01 Q1024
RJNW 180700Z VRB02KT 9999 FEW030 08/M01 Q1024
RJNW 180600Z 27007KT 240V330 9999 FEW030 SCT040 08/M02 Q1024